createdAt,value
2023-02-12T00:01:33.774Z,54.60
2023-02-12T00:04:04.137Z,55.20
2023-02-12T00:06:32.247Z,55.20
2023-02-12T00:09:00.386Z,52.20
2023-02-12T00:11:29.736Z,52.30
2023-02-12T00:13:58.574Z,49.20
2023-02-12T00:16:29.101Z,50.60
2023-02-12T00:18:59.025Z,49.10
2023-02-12T00:21:27.704Z,49.30
2023-02-12T00:23:56.283Z,51.70
2023-02-12T00:26:25.129Z,51.60
2023-02-12T00:28:54.624Z,48.50
2023-02-12T00:31:26.748Z,48.70
2023-02-12T00:34:00.667Z,45.10
2023-02-12T00:36:31.439Z,44.80
2023-02-12T00:39:01.550Z,43.30
2023-02-12T00:41:30.088Z,44.60
2023-02-12T00:43:58.322Z,42.20
2023-02-12T00:46:26.674Z,42.10
2023-02-12T00:48:56.794Z,43.30
2023-02-12T00:51:24.776Z,43.40
2023-02-12T00:53:55.350Z,42.60
2023-02-12T00:56:23.446Z,41.70
2023-02-12T00:58:52.574Z,42.90
2023-02-12T01:01:20.706Z,42.50
2023-02-12T01:03:48.840Z,42.00
2023-02-12T01:06:16.807Z,41.40
2023-02-12T01:08:47.369Z,41.30
2023-02-12T01:11:15.575Z,41.40
2023-02-12T01:13:43.707Z,41.20
2023-02-12T01:16:18.043Z,40.30
2023-02-12T01:18:47.350Z,40.10
2023-02-12T01:21:21.825Z,40.70
2023-02-12T01:23:50.686Z,40.00
2023-02-12T01:26:21.463Z,41.90
2023-02-12T01:28:53.500Z,39.80
2023-02-12T01:31:24.361Z,41.50
2023-02-12T01:33:54.992Z,40.90
2023-02-12T01:36:27.297Z,40.90
2023-02-12T01:38:56.787Z,42.80
2023-02-12T01:41:32.617Z,39.90
2023-02-12T01:44:13.475Z,38.60
2023-02-12T01:46:43.746Z,39.00
2023-02-12T01:49:29.707Z,37.50
2023-02-12T01:52:27.500Z,39.50
2023-02-12T01:54:59.303Z,37.40
2023-02-12T01:57:31.081Z,36.80
2023-02-12T02:00:01.779Z,37.40
2023-02-12T02:02:32.272Z,37.60
2023-02-12T02:05:03.679Z,37.60
2023-02-12T02:07:32.995Z,37.20
2023-02-12T02:10:02.143Z,36.70
2023-02-12T02:12:49.936Z,36.40
2023-02-12T02:15:18.323Z,35.40
2023-02-12T02:17:53.234Z,35.20
2023-02-12T02:20:39.967Z,34.20
2023-02-12T02:23:16.992Z,37.00
2023-02-12T02:26:20.820Z,36.10
2023-02-12T02:28:58.231Z,34.10
2023-02-12T02:31:44.102Z,34.10
2023-02-12T02:34:19.425Z,33.10
2023-02-12T02:37:03.753Z,32.10
2023-02-12T02:39:42.165Z,32.70
2023-02-12T02:42:23.736Z,35.00
2023-02-12T02:45:04.305Z,33.40
2023-02-12T02:47:37.870Z,33.40
2023-02-12T02:50:10.976Z,33.60
2023-02-12T02:52:52.521Z,34.40
2023-02-12T02:55:25.382Z,35.10
2023-02-12T02:58:25.834Z,35.00
2023-02-12T03:00:59.325Z,34.70
2023-02-12T03:03:34.398Z,33.30
2023-02-12T03:06:29.732Z,32.10
2023-02-12T03:09:05.425Z,33.90
2023-02-12T03:11:34.586Z,35.40
2023-02-12T03:14:25.989Z,35.70
2023-02-12T03:17:10.042Z,36.60
2023-02-12T03:19:51.608Z,35.50
2023-02-12T03:22:31.585Z,33.30
2023-02-12T03:25:21.550Z,35.90
2023-02-12T03:28:09.823Z,34.90
2023-02-12T03:31:02.850Z,34.60
2023-02-12T03:33:59.083Z,35.10
2023-02-12T03:36:31.719Z,35.70
2023-02-12T03:39:09.029Z,35.80
2023-02-12T03:41:48.131Z,36.30
2023-02-12T03:44:56.696Z,35.10
2023-02-12T03:47:38.956Z,33.70
2023-02-12T03:50:11.010Z,34.60
2023-02-12T03:52:39.323Z,35.20
2023-02-12T03:55:08.434Z,36.10
2023-02-12T03:57:45.223Z,36.80
2023-02-12T04:00:19.294Z,35.40
2023-02-12T04:02:49.018Z,35.30
2023-02-12T04:05:28.450Z,36.70
2023-02-12T04:07:58.868Z,37.00
2023-02-12T04:11:07.991Z,37.80
2023-02-12T04:14:19.499Z,37.10
2023-02-12T04:17:08.921Z,35.90
2023-02-12T04:20:05.489Z,36.30
2023-02-12T04:22:58.332Z,35.70
2023-02-12T04:25:48.606Z,36.00
2023-02-12T04:28:39.245Z,35.40
2023-02-12T04:31:24.263Z,36.30
2023-02-12T04:34:13.986Z,37.70
2023-02-12T04:36:52.890Z,35.10
2023-02-12T04:39:25.855Z,31.70
2023-02-12T04:41:54.048Z,37.20
2023-02-12T04:44:24.683Z,36.40
2023-02-12T04:46:53.179Z,38.20
2023-02-12T04:49:23.197Z,35.70
2023-02-12T04:51:51.634Z,34.00
2023-02-12T04:54:21.974Z,33.90
2023-02-12T04:56:50.873Z,36.40
2023-02-12T04:59:18.966Z,37.10
2023-02-12T05:01:47.111Z,38.40
2023-02-12T05:04:16.892Z,38.70
2023-02-12T05:06:46.645Z,39.60
2023-02-12T05:09:20.713Z,39.00
2023-02-12T05:11:48.879Z,38.40
2023-02-12T05:14:18.300Z,40.40
2023-02-12T05:16:46.309Z,34.80
2023-02-12T05:19:14.288Z,35.20
2023-02-12T05:21:42.348Z,37.40
2023-02-12T05:24:10.696Z,38.30
2023-02-12T05:26:39.958Z,33.60
2023-02-12T05:29:08.217Z,36.00
2023-02-12T05:31:36.318Z,36.00
2023-02-12T05:34:04.509Z,38.10
2023-02-12T05:36:33.097Z,40.60
2023-02-12T05:39:01.038Z,39.50
2023-02-12T05:41:29.521Z,38.30
2023-02-12T05:43:57.563Z,40.50
2023-02-12T05:46:25.532Z,39.20
2023-02-12T05:48:53.969Z,40.50
2023-02-12T05:51:25.153Z,39.10
2023-02-12T05:53:58.992Z,42.40
2023-02-12T05:56:33.328Z,42.10
2023-02-12T05:59:08.936Z,40.90
2023-02-12T06:01:41.896Z,43.30
2023-02-12T06:04:18.974Z,42.70
2023-02-12T06:06:48.493Z,46.40
2023-02-12T06:09:16.713Z,49.50
2023-02-12T06:11:44.924Z,49.00
2023-02-12T06:14:15.801Z,51.30
2023-02-12T06:16:48.243Z,49.90
2023-02-12T06:19:16.871Z,49.20
2023-02-12T06:21:46.340Z,48.00
2023-02-12T06:24:16.452Z,51.10
2023-02-12T06:26:50.324Z,47.20
2023-02-12T06:29:20.691Z,53.20
2023-02-12T06:31:49.340Z,55.40
2023-02-12T06:34:18.466Z,52.20
2023-02-12T06:36:47.829Z,51.80
2023-02-12T06:39:17.536Z,54.20
2023-02-12T06:41:45.751Z,55.00
2023-02-12T06:44:13.772Z,46.30
2023-02-12T06:46:42.549Z,54.80
2023-02-12T06:49:14.329Z,55.20
2023-02-12T06:51:42.741Z,48.50
2023-02-12T06:54:16.863Z,55.40
2023-02-12T06:56:45.386Z,50.00
2023-02-12T06:59:16.363Z,54.40
2023-02-12T07:01:46.628Z,49.20
2023-02-12T07:04:14.901Z,51.50
2023-02-12T07:06:42.980Z,51.40
2023-02-12T07:09:10.968Z,50.00
2023-02-12T07:11:39.961Z,52.90
2023-02-12T07:14:07.914Z,51.50
2023-02-12T07:16:36.003Z,51.30
2023-02-12T07:19:04.780Z,55.70
2023-02-12T07:21:33.208Z,51.00
2023-02-12T07:24:01.252Z,49.90
2023-02-12T07:26:29.337Z,56.80
2023-02-12T07:28:58.850Z,53.60
2023-02-12T07:31:27.123Z,49.20
2023-02-12T07:33:57.368Z,55.90
2023-02-12T07:36:28.189Z,56.70
2023-02-12T07:38:57.309Z,53.00
2023-02-12T07:41:30.743Z,55.10
2023-02-12T07:44:16.757Z,50.40
2023-02-12T07:46:48.611Z,52.80
2023-02-12T07:49:19.667Z,53.50
2023-02-12T07:51:49.372Z,55.30
2023-02-12T07:54:17.352Z,60.60
2023-02-12T07:56:47.199Z,52.30
2023-02-12T07:59:18.198Z,58.40
2023-02-12T08:01:52.926Z,60.20
2023-02-12T08:04:24.038Z,60.30
2023-02-12T08:06:54.575Z,50.90
2023-02-12T08:09:25.965Z,60.20
2023-02-12T08:11:55.820Z,51.60
2023-02-12T08:14:24.092Z,55.00
2023-02-12T08:16:53.091Z,58.40
2023-02-12T08:19:25.790Z,54.50
2023-02-12T08:21:56.885Z,59.20
2023-02-12T08:24:25.887Z,55.20
2023-02-12T08:26:55.344Z,58.80
2023-02-12T08:29:27.735Z,58.00
2023-02-12T08:31:59.500Z,54.00
2023-02-12T08:34:31.160Z,53.70
2023-02-12T08:36:59.758Z,52.60
2023-02-12T08:39:29.453Z,53.10
2023-02-12T08:41:59.242Z,49.50
2023-02-12T08:44:27.526Z,58.70
2023-02-12T08:46:58.433Z,54.00
2023-02-12T08:49:29.411Z,51.20
2023-02-12T08:51:58.982Z,47.90
2023-02-12T08:54:29.449Z,49.10
2023-02-12T08:57:01.696Z,42.90
2023-02-12T08:59:30.358Z,45.90
2023-02-12T09:01:59.720Z,48.30
2023-02-12T09:04:29.009Z,45.20
2023-02-12T09:06:57.398Z,44.60
2023-02-12T09:09:25.449Z,47.00
2023-02-12T09:11:53.507Z,45.30
2023-02-12T09:14:24.417Z,50.20
2023-02-12T09:16:55.160Z,52.80
2023-02-12T09:19:23.805Z,50.00
2023-02-12T09:21:55.798Z,50.80
2023-02-12T09:24:27.877Z,50.90
2023-02-12T09:26:56.961Z,51.50
2023-02-12T09:29:25.517Z,48.70
2023-02-12T09:31:53.748Z,50.90
2023-02-12T09:34:21.920Z,52.20
2023-02-12T09:36:49.968Z,50.20
2023-02-12T09:39:17.897Z,46.80
2023-02-12T09:41:54.556Z,46.30
2023-02-12T09:44:48.242Z,44.80
2023-02-12T09:47:36.394Z,41.70
2023-02-12T09:50:13.954Z,41.40
2023-02-12T09:52:41.959Z,45.10
2023-02-12T09:55:19.922Z,44.20
2023-02-12T09:57:48.470Z,44.20
2023-02-12T10:00:23.668Z,37.90
2023-02-12T10:02:53.946Z,41.60
2023-02-12T10:05:32.378Z,43.80
2023-02-12T10:08:06.312Z,43.10
2023-02-12T10:11:10.300Z,41.60
2023-02-12T10:13:41.270Z,43.50
2023-02-12T10:16:38.457Z,119.60
2023-02-12T10:19:24.147Z,43.20
2023-02-12T10:22:11.207Z,33.30
2023-02-12T10:24:59.974Z,32.40
2023-02-12T10:27:43.306Z,31.90
2023-02-12T10:30:59.105Z,32.70
2023-02-12T10:33:32.618Z,34.40
2023-02-12T10:36:16.313Z,31.50
2023-02-12T10:38:50.699Z,30.80
2023-02-12T10:41:19.066Z,33.50
2023-02-12T10:43:47.190Z,32.00
2023-02-12T10:46:16.682Z,31.30
2023-02-12T10:48:48.776Z,31.90
2023-02-12T10:51:46.524Z,33.70
2023-02-12T10:54:41.234Z,32.70
2023-02-12T10:57:21.351Z,29.50
2023-02-12T10:59:53.249Z,32.60
2023-02-12T11:02:26.060Z,33.60
2023-02-12T11:04:56.048Z,31.90
2023-02-12T11:07:26.346Z,28.50
2023-02-12T11:09:56.840Z,34.10
2023-02-12T11:12:38.668Z,32.80
2023-02-12T11:15:15.753Z,30.30
2023-02-12T11:17:46.330Z,32.20
2023-02-12T11:20:20.898Z,32.60
2023-02-12T11:23:00.302Z,30.30
2023-02-12T11:25:31.432Z,29.80
2023-02-12T11:28:13.897Z,31.10
2023-02-12T11:31:20.406Z,31.10
2023-02-12T11:34:06.367Z,29.20
2023-02-12T11:36:39.110Z,27.60
2023-02-12T11:39:21.406Z,28.80
2023-02-12T11:41:56.229Z,25.60
2023-02-12T11:44:30.500Z,30.40
2023-02-12T11:47:09.642Z,29.40
2023-02-12T11:49:56.692Z,23.00
2023-02-12T11:52:29.498Z,28.80
2023-02-12T11:55:01.453Z,26.20
2023-02-12T11:57:46.553Z,30.90
2023-02-12T12:00:18.303Z,29.00
2023-02-12T12:03:02.684Z,29.30
2023-02-12T12:05:38.395Z,28.40
2023-02-12T12:08:36.185Z,29.20
2023-02-12T12:11:13.324Z,30.90
2023-02-12T12:13:56.432Z,29.00
2023-02-12T12:17:13.476Z,31.40
2023-02-12T12:19:57.188Z,31.60
2023-02-12T12:22:35.933Z,27.50
2023-02-12T12:25:27.300Z,28.70
2023-02-12T12:28:29.156Z,31.20
2023-02-12T12:31:15.400Z,32.10
2023-02-12T12:34:06.817Z,32.50
2023-02-12T12:37:07.979Z,29.00
2023-02-12T12:40:04.951Z,30.60
2023-02-12T12:42:59.170Z,27.00
2023-02-12T12:45:55.116Z,32.30
2023-02-12T12:48:56.257Z,32.00
2023-02-12T12:51:36.452Z,30.10
2023-02-12T12:54:58.767Z,23.70
2023-02-12T12:57:54.982Z,31.70
2023-02-12T13:03:12.923Z,31.10
2023-02-12T13:05:59.358Z,30.90
2023-02-12T13:08:40.548Z,32.90
2023-02-12T13:11:08.452Z,28.70
2023-02-12T13:13:41.914Z,31.40
2023-02-12T13:16:42.425Z,32.40
2023-02-12T13:19:37.259Z,31.40
2023-02-12T13:22:09.285Z,25.30
2023-02-12T13:24:43.064Z,29.70
2023-02-12T13:27:22.809Z,30.20
2023-02-12T13:29:55.293Z,28.90
2023-02-12T13:32:40.654Z,24.80
2023-02-12T13:35:18.294Z,25.90
2023-02-12T13:37:58.634Z,28.60
2023-02-12T13:40:30.054Z,28.90
2023-02-12T13:43:13.918Z,27.10
2023-02-12T13:45:46.995Z,28.20
2023-02-12T13:48:46.102Z,29.40
2023-02-12T13:51:42.052Z,28.60
2023-02-12T13:54:26.212Z,24.60
2023-02-12T13:57:02.940Z,30.60
2023-02-12T13:59:39.977Z,27.00
2023-02-12T14:02:39.006Z,27.30
2023-02-12T14:05:31.464Z,27.10
2023-02-12T14:08:05.292Z,23.80
2023-02-12T14:10:39.953Z,28.50
2023-02-12T14:13:16.416Z,29.30
2023-02-12T14:15:54.362Z,27.30
2023-02-12T14:18:30.608Z,28.90
2023-02-12T14:21:19.436Z,27.20
2023-02-12T14:23:47.668Z,28.10
2023-02-12T14:26:22.326Z,26.80
2023-02-12T14:29:13.187Z,25.00
2023-02-12T14:31:43.092Z,29.60
2023-02-12T14:34:11.528Z,29.30
2023-02-12T14:36:44.190Z,24.50
2023-02-12T14:39:24.369Z,28.80
2023-02-12T14:42:13.337Z,29.60
2023-02-12T14:44:49.169Z,28.20
2023-02-12T14:47:29.337Z,30.10
2023-02-12T14:50:07.253Z,29.50
2023-02-12T14:52:41.327Z,30.60
2023-02-12T14:55:26.122Z,29.10
2023-02-12T14:58:01.305Z,29.10
2023-02-12T15:00:41.491Z,29.00
2023-02-12T15:03:12.893Z,28.90
2023-02-12T15:05:56.577Z,29.90
2023-02-12T15:08:50.876Z,29.50
2023-02-12T15:11:33.285Z,29.70
2023-02-12T15:14:22.524Z,30.20
2023-02-12T15:17:19.146Z,31.00
2023-02-12T15:19:53.156Z,29.10
2023-02-12T15:22:35.806Z,30.10
2023-02-12T15:25:27.535Z,31.50
2023-02-12T15:28:01.997Z,30.60
2023-02-12T15:30:35.662Z,33.50
2023-02-12T15:33:07.079Z,31.40
2023-02-12T15:35:45.905Z,30.20
2023-02-12T15:38:36.882Z,30.30
2023-02-12T15:41:06.614Z,32.40
2023-02-12T15:43:40.970Z,31.20
2023-02-12T15:46:18.307Z,34.40
2023-02-12T15:48:47.131Z,34.60
2023-02-12T15:51:39.795Z,31.90
2023-02-12T15:54:20.308Z,34.10
2023-02-12T15:56:52.743Z,31.60
2023-02-12T15:59:24.276Z,31.70
2023-02-12T16:02:01.192Z,31.90
2023-02-12T16:04:37.395Z,32.80
2023-02-12T16:07:08.367Z,30.60
2023-02-12T16:09:37.160Z,30.90
2023-02-12T16:12:12.364Z,31.30
2023-02-12T16:17:23.245Z,30.90
2023-02-12T16:20:05.103Z,34.90
2023-02-12T16:22:40.168Z,31.40
2023-02-12T16:28:05.951Z,29.60
2023-02-12T16:30:42.814Z,29.10
2023-02-12T16:33:45.501Z,32.60
2023-02-12T16:36:20.755Z,32.50
2023-02-12T16:38:55.391Z,33.30
2023-02-12T16:41:27.338Z,31.30
2023-02-12T16:44:01.643Z,33.00
2023-02-12T16:46:33.104Z,29.50
2023-02-12T16:49:03.182Z,33.00
2023-02-12T16:51:33.826Z,32.40
2023-02-12T16:54:04.665Z,33.50
2023-02-12T16:56:40.748Z,29.80
2023-02-12T16:59:09.652Z,29.70
2023-02-12T17:01:37.738Z,34.10
2023-02-12T17:04:08.873Z,28.30
2023-02-12T17:06:36.884Z,32.80
2023-02-12T17:09:04.939Z,30.90
2023-02-12T17:11:33.055Z,32.20
2023-02-12T17:14:01.198Z,37.20
2023-02-12T17:16:31.511Z,35.20
2023-02-12T17:19:00.824Z,34.20
2023-02-12T17:21:37.892Z,36.70
2023-02-12T17:24:21.309Z,36.20
2023-02-12T17:26:51.269Z,34.80
2023-02-12T17:29:21.761Z,36.70
2023-02-12T17:31:51.865Z,34.40
2023-02-12T17:34:20.516Z,37.60
2023-02-12T17:36:48.747Z,35.60
2023-02-12T17:39:17.849Z,37.30
2023-02-12T17:41:46.943Z,36.50
2023-02-12T17:44:16.586Z,39.30
2023-02-12T17:46:45.922Z,38.70
2023-02-12T17:49:14.027Z,39.40
2023-02-12T17:51:43.612Z,39.20
2023-02-12T17:54:12.395Z,41.90
2023-02-12T17:56:40.507Z,42.50
2023-02-12T17:59:09.955Z,39.10
2023-02-12T18:01:39.818Z,43.60
2023-02-12T18:04:08.080Z,37.50
2023-02-12T18:06:36.188Z,33.00
2023-02-12T18:09:04.688Z,41.60
2023-02-12T18:11:33.465Z,43.50
2023-02-12T18:14:02.342Z,43.30
2023-02-12T18:16:32.797Z,37.50
2023-02-12T18:19:04.547Z,39.30
2023-02-12T18:21:35.240Z,39.50
2023-02-12T18:24:03.963Z,39.70
2023-02-12T18:26:32.824Z,38.90
2023-02-12T18:29:01.221Z,38.20
2023-02-12T18:31:29.980Z,38.40
2023-02-12T18:33:59.499Z,37.90
2023-02-12T18:36:27.632Z,38.90
2023-02-12T18:38:55.729Z,39.00
2023-02-12T18:41:26.578Z,41.20
2023-02-12T18:43:56.684Z,41.30
2023-02-12T18:46:30.066Z,36.50
2023-02-12T18:48:59.954Z,39.60
2023-02-12T18:51:32.107Z,40.00
2023-02-12T18:54:05.336Z,39.60
2023-02-12T18:56:36.882Z,39.70
2023-02-12T18:59:06.036Z,39.40
2023-02-12T19:01:36.177Z,37.90
2023-02-12T19:04:07.421Z,39.60
2023-02-12T19:06:57.727Z,40.40
2023-02-12T19:09:27.037Z,37.50
2023-02-12T19:11:57.696Z,39.60
2023-02-12T19:14:27.974Z,40.90
2023-02-12T19:16:55.933Z,40.50
2023-02-12T19:19:24.972Z,44.00
2023-02-12T19:21:53.030Z,44.10
2023-02-12T19:24:21.258Z,43.10
2023-02-12T19:26:52.301Z,40.90
2023-02-12T19:29:20.674Z,37.30
2023-02-12T19:31:49.422Z,38.40
2023-02-12T19:34:20.268Z,40.00
2023-02-12T19:36:49.913Z,39.10
2023-02-12T19:39:21.668Z,41.20
2023-02-12T19:41:51.219Z,41.10
2023-02-12T19:44:22.764Z,40.30
2023-02-12T19:46:51.667Z,38.70
2023-02-12T19:49:22.747Z,38.90
2023-02-12T19:51:51.092Z,40.20
2023-02-12T19:54:22.467Z,38.70
2023-02-12T19:56:52.951Z,40.10
2023-02-12T19:59:23.991Z,38.40
2023-02-12T20:01:53.254Z,37.60
2023-02-12T20:04:23.048Z,41.90
2023-02-12T20:06:51.331Z,40.50
2023-02-12T20:09:22.443Z,38.50
2023-02-12T20:11:51.300Z,41.20
2023-02-12T20:14:21.131Z,42.50
2023-02-12T20:16:53.796Z,43.30
2023-02-12T20:19:25.864Z,37.50
2023-02-12T20:21:55.919Z,42.20
2023-02-12T20:24:26.425Z,47.60
2023-02-12T20:26:56.643Z,49.10
2023-02-12T20:29:25.470Z,47.80
2023-02-12T20:31:54.378Z,49.50
2023-02-12T20:34:22.760Z,45.90
2023-02-12T20:36:52.638Z,43.40
2023-02-12T20:39:21.333Z,41.90
2023-02-12T20:41:50.659Z,39.20
2023-02-12T20:44:24.026Z,37.50
2023-02-12T20:46:56.483Z,39.70
2023-02-12T20:49:28.355Z,38.50
2023-02-12T20:51:57.250Z,41.00
2023-02-12T20:54:26.046Z,43.20
2023-02-12T20:56:54.335Z,41.60
2023-02-12T20:59:22.495Z,43.40
2023-02-12T21:01:50.725Z,43.20
2023-02-12T21:04:20.481Z,42.70
2023-02-12T21:06:48.956Z,46.00
2023-02-12T21:09:19.134Z,45.60
2023-02-12T21:11:47.952Z,44.40
2023-02-12T21:14:24.797Z,39.80
2023-02-12T21:16:55.189Z,41.40
2023-02-12T21:19:24.661Z,42.90
2023-02-12T21:21:53.141Z,46.00
2023-02-12T21:24:25.894Z,48.30
2023-02-12T21:26:56.480Z,50.10
2023-02-12T21:29:27.571Z,51.10
2023-02-12T21:31:55.923Z,55.20
2023-02-12T21:34:24.384Z,57.60
2023-02-12T21:36:54.765Z,59.40
2023-02-12T21:39:27.353Z,60.10
2023-02-12T21:42:02.885Z,52.20
2023-02-12T21:44:35.648Z,61.20
2023-02-12T21:47:04.664Z,36.20
2023-02-12T21:49:33.096Z,56.50
2023-02-12T21:52:04.650Z,51.50
2023-02-12T21:54:33.647Z,49.50
2023-02-12T21:57:02.523Z,50.70
2023-02-12T21:59:32.344Z,53.50
2023-02-12T22:02:01.950Z,51.60
2023-02-12T22:04:32.378Z,52.70
2023-02-12T22:07:03.293Z,50.60
2023-02-12T22:09:32.118Z,52.50
2023-02-12T22:12:00.238Z,47.90
2023-02-12T22:14:28.267Z,51.10
2023-02-12T22:16:56.347Z,51.30
2023-02-12T22:19:24.621Z,45.50
2023-02-12T22:21:53.802Z,49.70
2023-02-12T22:24:22.194Z,49.10
2023-02-12T22:26:50.306Z,50.40
2023-02-12T22:29:18.488Z,44.80
2023-02-12T22:31:47.138Z,46.30
2023-02-12T22:34:19.158Z,40.80
2023-02-12T22:36:48.695Z,46.70
2023-02-12T22:39:17.759Z,45.20
2023-02-12T22:41:46.618Z,49.60
2023-02-12T22:44:16.379Z,46.50
2023-02-12T22:46:44.784Z,48.40
2023-02-12T22:49:12.828Z,44.80
2023-02-12T22:51:41.354Z,48.50
2023-02-12T22:54:15.466Z,42.30
2023-02-12T22:56:44.188Z,45.60
2023-02-12T22:59:12.735Z,47.20
2023-02-12T23:01:43.468Z,46.20
2023-02-12T23:04:19.061Z,44.30
2023-02-12T23:06:47.300Z,36.50
2023-02-12T23:09:19.108Z,44.70
2023-02-12T23:11:48.068Z,42.20
2023-02-12T23:14:16.180Z,37.10
2023-02-12T23:16:44.188Z,41.70
2023-02-12T23:19:12.853Z,39.80
2023-02-12T23:21:40.850Z,39.50
2023-02-12T23:24:13.970Z,38.90
2023-02-12T23:26:42.097Z,42.20
2023-02-12T23:29:10.148Z,39.20
2023-02-12T23:31:38.903Z,39.40
2023-02-12T23:34:07.044Z,32.90
2023-02-12T23:36:35.589Z,32.10
2023-02-12T23:39:05.864Z,29.00
2023-02-12T23:41:34.366Z,32.50
2023-02-12T23:44:02.573Z,36.40
2023-02-12T23:46:30.899Z,28.10
2023-02-12T23:48:59.061Z,34.30
2023-02-12T23:51:27.034Z,34.90
2023-02-12T23:53:55.031Z,35.60
2023-02-12T23:56:23.666Z,28.50
2023-02-12T23:58:51.620Z,30.80
